Latest Coastal Weather Observations for Croker Island Airport

IDD60701

Issued at 3:45 pm CST Monday 22 September 2014 (issued every 10 minutes, with the page automatically refreshed every 10 minutes)

About coastal observations | Map of coastal stations | Coastal observations for NT | Marine services | Other Formats
Station Details ID: 014308 Name: CROKER ISLAND AIRPORT Lat: -11.16 Lon: 132.48 Height: 9.2 m
Data from the previous 72 hours. | See also: Recent months for locations in Northern Territory
Date/Time
CST
Temp

°C
Wind Pressure Rain
since 9am
mm
Weather Cloud Vis
km
Sea
Height
m
Swell
Dir
 
Speed
knots
Gust
knots
hPa Trend Height
m
Period
s
Dir
22/03:30pm 31.4 ENE 10 14 1010.9 - - - - - - - - -
22/03:00pm 32.5 ENE 10 15 1011.2 - - - - - - - - -
22/02:30pm 32.2 E 9 13 1011.5 - - - - - - - - -
22/02:00pm 32.2 E 9 13 1011.7 - - - - - - - - -
22/01:30pm 32.6 SE 7 13 1012.1 - - - - - - - - -
22/01:00pm 31.5 ESE 5 9 1012.7 - - - - - - - - -
22/12:30pm 30.7 E 7 13 1013.4 - - - - - - - - -
22/12:00pm 31.1 E 7 11 1014.0 - - - - - - - - -
22/11:30am 31.1 E 8 15 1014.6 - - - - - - - - -
22/11:00am 31.1 E 7 13 1015.0 - - - - - - - - -
22/10:30am 29.6 E 6 10 1015.5 - - - - - - - - -
22/10:00am 29.9 E 6 11 1015.7 - - - - - - - - -
22/09:30am 28.4 E 7 10 1016.0 - - - - - - - - -
22/09:00am 28.4 ESE 7 13 1015.9 - - - - - - - - -
22/08:30am 26.9 ESE 6 11 1015.8 - - - - - - - - -
22/08:00am 25.3 ESE 4 6 1015.4 - - - - - - - - -
22/07:30am 23.4 ESE 3 4 1014.9 - - - - - - - - -
22/07:00am 22.4 SE 3 4 1014.4 - - - - - - - - -
22/06:30am 22.1 SE 3 4 1013.9 - - - - - - - - -
22/06:00am 21.4 ESE 4 4 1013.5 - - - - - - - - -
22/05:30am 22.3 SE 3 4 1013.3 - - - - - - - - -
22/05:00am 22.7 SSE 3 4 1012.9 - - - - - - - - -
22/04:30am 22.2 SE 3 3 1012.7 - - - - - - - - -
22/04:00am 22.1 ESE 2 3 1012.7 - - - - - - - - -
22/03:30am 23.1 ESE 3 4 1012.8 - - - - - - - - -
22/03:00am 24.1 SSW 3 5 1012.7 - - - - - - - - -
22/02:30am 24.2 SSW 3 4 1012.9 - - - - - - - - -
22/02:00am 24.3 SSW 4 6 1013.1 - - - - - - - - -
22/01:30am 22.9 SSE 3 4 1013.4 - - - - - - - - -
22/01:00am 21.9 E 2 3 1013.3 - - - - - - - - -
22/12:30am 22.9 ENE 3 5 1013.4 - - - - - - - - -
22/12:00am 23.4 ENE 4 4 1013.8 - - - - - - - - -
 
Date/Time
CST
Temp

°C
Wind Pressure Rain
since 9am
mm
Weather Cloud Vis
km
Sea
Height
m
Swell
Dir
 
Speed
knots
Gust
knots
hPa Trend Height
m
Period
s
Dir
21/11:30pm 23.7 NE 3 4 1014.0 - - - - - - - - -
21/11:00pm 23.9 NE 3 4 1014.0 - - - - - - - - -
21/10:30pm 24.9 NE 3 5 1014.2 - - - - - - - - -
21/10:00pm 25.4 NNE 5 7 1014.1 - - - - - - - - -
21/09:30pm 25.5 N 6 8 1014.0 - - - - - - - - -
21/09:00pm 25.3 N 4 6 1014.0 - - - - - - - - -
21/08:30pm 25.4 N 5 8 1013.7 - - - - - - - - -
21/08:00pm 25.6 NNE 5 8 1013.4 - - - - - - - - -
21/07:30pm 25.7 NNE 5 8 1013.2 - - - - - - - - -
21/07:00pm 26.1 NNE 5 8 1012.9 - - - - - - - - -
21/06:30pm 26.8 NNE 6 9 1012.5 - - - - - - - - -
21/06:00pm 27.9 NNE 6 9 1012.2 - - - - - - - - -
21/05:30pm 29.0 NNE 7 11 1011.8 - - - - - - - - -
21/05:00pm 30.1 NE 7 11 1011.8 - - - - - - - - -
21/04:30pm 31.6 NE 7 10 1011.5 - - - - - - - - -
21/04:00pm 32.2 NE 6 11 1011.3 - - - - - - - - -
21/03:30pm 32.6 ENE 8 12 1011.2 - - - - - - - - -
21/03:00pm 32.9 NE 7 10 1011.5 - - - - - - - - -
21/02:30pm 32.3 NE 7 11 1011.8 - - - - - - - - -
21/02:00pm 31.5 NW 6 9 1012.3 - - - - - - - - -
21/01:30pm 30.8 NNW 7 11 1012.7 - - - - - - - - -
21/01:00pm 31.3 NNW 6 9 1013.2 - - - - - - - - -
21/12:30pm 31.7 WNW 3 6 1013.6 - - - - - - - - -
21/12:00pm 31.8 ENE 3 8 1014.0 - - - - - - - - -
21/11:30am 32.0 SE 5 10 1014.2 - - - - - - - - -
21/11:00am 29.9 SW 4 6 1014.8 - - - - - - - - -
21/10:30am 29.1 S 5 7 1015.3 - - - - - - - - -
21/10:00am 28.4 SSW 5 7 1015.5 - - - - - - - - -
21/09:30am 27.7 SSW 4 5 1015.5 - - - - - - - - -
21/09:00am 26.9 SSW 4 5 1015.4 - - - - - - - - -
21/08:30am 25.7 SSW 4 6 1015.0 - - - - - - - - -
21/08:00am 24.9 SSW 5 7 1014.7 - - - - - - - - -
21/07:30am 23.9 SSW 4 6 1014.3 - - - - - - - - -
21/07:00am 22.6 SW 3 5 1014.0 - - - - - - - - -
21/06:30am 20.4 CALM 0 1 1013.3 - - - - - - - - -
21/06:00am 20.9 ESE 1 2 1012.9 - - - - - - - - -
21/05:30am 19.9 CALM 0 1 1012.5 - - - - - - - - -
21/05:00am 21.1 NE 4 4 1012.0 - - - - - - - - -
21/04:30am 20.8 ENE 4 4 1012.1 - - - - - - - - -
21/04:00am 20.4 ENE 3 4 1012.1 - - - - - - - - -
21/03:30am 20.6 ENE 3 4 1012.1 - - - - - - - - -
21/03:00am 20.8 ENE 3 4 1012.2 - - - - - - - - -
21/02:30am 21.2 E 2 3 1012.3 - - - - - - - - -
21/02:00am 22.1 E 4 5 1012.6 - - - - - - - - -
21/01:30am 21.9 E 2 3 1012.9 - - - - - - - - -
21/01:00am 22.9 ENE 3 4 1013.0 - - - - - - - - -
21/12:30am 23.2 ENE 3 4 1013.2 - - - - - - - - -
21/12:00am 23.2 ENE 3 4 1013.6 - - - - - - - - -
 
Date/Time
CST
Temp

°C
Wind Pressure Rain
since 9am
mm
Weather Cloud Vis
km
Sea
Height
m
Swell
Dir
 
Speed
knots
Gust
knots
hPa Trend Height
m
Period
s
Dir
20/11:30pm 23.3 ENE 3 4 1013.7 - - - - - - - - -
20/11:00pm 23.3 NE 2 3 1013.7 - - - - - - - - -
20/10:30pm 23.4 ENE 4 4 1013.5 - - - - - - - - -
20/10:00pm 23.9 ENE 4 4 1013.4 - - - - - - - - -
20/09:30pm 24.6 NNE 5 8 1013.0 - - - - - - - - -
20/09:00pm 24.6 NNE 5 7 1012.7 - - - - - - - - -
20/08:30pm 24.6 NE 3 6 1012.7 - - - - - - - - -
20/08:00pm 24.8 NE 3 5 1012.5 - - - - - - - - -
20/07:30pm 25.1 NE 5 7 1012.1 - - - - - - - - -
20/07:00pm 25.6 NE 7 10 1011.7 - - - - - - - - -
20/06:30pm 26.3 ENE 8 10 1011.7 - - - - - - - - -
20/06:00pm 27.4 ENE 9 15 1011.5 - - - - - - - - -
20/05:30pm 28.6 ENE 9 14 1011.3 - - - - - - - - -
20/05:00pm 29.1 ENE 11 14 1011.2 - - - - - - - - -
20/04:30pm 30.1 ENE 10 15 1011.0 - - - - - - - - -
20/04:00pm 30.6 E 11 16 1010.9 - - - - - - - - -
20/03:30pm 31.5 ENE 11 15 1011.1 - - - - - - - - -
20/03:00pm 31.8 E 12 17 1011.3 - - - - - - - - -
20/02:30pm 32.0 ENE 11 16 1011.8 - - - - - - - - -
20/02:00pm 32.3 E 11 18 1012.4 - - - - - - - - -
20/01:30pm 32.1 E 10 16 1012.9 - - - - - - - - -
20/01:00pm 31.4 E 10 17 1013.5 - - - - - - - - -
20/12:30pm 31.6 E 11 19 1014.0 - - - - - - - - -
20/12:00pm 31.9 E 10 17 1014.5 - - - - - - - - -
20/11:30am 31.8 E 10 17 1014.9 - - - - - - - - -
20/11:00am 30.8 E 12 16 1015.4 - - - - - - - - -
20/10:30am 31.4 E 8 13 1015.6 - - - - - - - - -
20/10:00am 30.5 ENE 7 13 1015.6 - - - - - - - - -
20/09:30am 29.4 E 9 14 1015.5 - - - - - - - - -
20/09:00am 28.8 E 8 12 1015.4 - - - - - - - - -
20/08:30am 27.7 E 4 7 1015.2 - - - - - - - - -
20/08:00am 25.9 E 2 4 1014.7 - - - - - - - - -
20/07:30am 22.7 CALM 0 1 1014.5 - - - - - - - - -
20/07:00am 20.8 E 1 2 1014.2 - - - - - - - - -
20/06:30am 20.2 ESE 2 2 1013.7 - - - - - - - - -
20/06:00am 20.0 ESE 2 2 1013.4 - - - - - - - - -
20/05:30am 20.0 ESE 1 2 1013.1 - - - - - - - - -
20/05:00am 20.0 E 3 4 1012.8 - - - - - - - - -
20/04:30am 19.8 E 2 3 1012.7 - - - - - - - - -
20/04:00am 20.1 E 3 3 1012.7 - - - - - - - - -
20/03:30am 20.3 E 2 2 1012.8 - - - - - - - - -
20/03:00am 21.8 ENE 3 4 1012.8 - - - - - - - - -
20/02:30am 22.4 ENE 4 4 1012.7 - - - - - - - - -
20/02:00am 22.6 E 4 5 1013.1 - - - - - - - - -
20/01:30am 23.5 ENE 5 6 1013.3 - - - - - - - - -
20/01:00am 23.9 ENE 5 7 1013.7 - - - - - - - - -
20/12:30am 24.0 ENE 5 6 1014.1 - - - - - - - - -
20/12:00am 24.4 ENE 5 6 1014.5 - - - - - - - - -
 
Date/Time
CST
Temp

°C
Wind Pressure Rain
since 9am
mm
Weather Cloud Vis
km
Sea
Height
m
Swell
Dir
 
Speed
knots
Gust
knots
hPa Trend Height
m
Period
s
Dir
19/11:30pm 25.0 ENE 6 8 1014.5 - - - - - - - - -
19/11:00pm 25.1 ENE 7 9 1014.6 - - - - - - - - -
19/10:30pm 25.0 ENE 6 10 1014.5 - - - - - - - - -
19/10:00pm 25.4 ENE 7 12 1014.5 - - - - - - - - -
19/09:30pm 25.4 ENE 6 9 1014.2 - - - - - - - - -
19/09:00pm 25.6 ENE 6 9 1013.9 - - - - - - - - -
19/08:30pm 25.9 ENE 7 11 1013.6 - - - - - - - - -
19/08:00pm 25.9 ENE 6 10 1013.1 - - - - - - - - -
19/07:30pm 26.2 ENE 7 10 1012.5 - - - - - - - - -
19/07:00pm 26.4 NE 7 11 1012.0 - - - - - - - - -
19/06:30pm 27.1 NE 10 15 1011.6 - - - - - - - - -
19/06:00pm 28.1 NE 11 18 1011.3 - - - - - - - - -
19/05:30pm 29.3 NE 11 17 1011.1 - - - - - - - - -
19/05:00pm 30.1 ENE 12 18 1011.2 - - - - - - - - -
19/04:30pm 31.1 ENE 13 19 1011.2 - - - - - - - - -
19/04:00pm 31.8 E 13 19 1011.3 - - - - - - - - -

Other Formats:

Comma delimited format used in spreadsheet applications
http://www.bom.gov.au/fwo/IDD60701/IDD60701.94108.axf

JavaScript Object Notation format (JSON) in row-major order
http://www.bom.gov.au/fwo/IDD60701/IDD60701.94108.json